Mr. Mag — WDE7813 — position and weather

sailwx.info

Track history (hours):
 
Tides and Currents Weather Stations Pressure Air Temp Water Temp Dewpoint Dewpoint Depression Visibility Wind Speed Wind Dir Waves Ship Positions

Mr. Mag

Owner: Tandi Marine, Inc., Larose, LA. More information available from US FCC via Universal Licensing System and Coast Guard Vessel Documentation Center.

Last reported at 2016-Jun-28 07:04 UTC. Time now 2016-Jun-28 09:51 UTC.
Position N 29°31' W 092°19'.

Length 46 m; draft 2.5 m.

Type: Passenger vessel. MMSI: 367397990.

Date/timePositionNaut miles runAvg speedWind from/ knotsBaromVisibWave heightAir tempDewpointWater temp
2016-Jun-28 07:04N 29°31' W 092°19'4 7.9
2016-Jun-28 06:33N 29°35' W 092°18'14 6.8
2016-Jun-28 04:33N 29°47' W 092°11'0 0.0
2016-Jun-28 03:33N 29°47' W 092°11'0 0.0
2016-Jun-28 02:33N 29°47' W 092°11'0 0.0
2016-Jun-28 01:33N 29°47' W 092°11'0 0.0
2016-Jun-28 00:33N 29°47' W 092°11'0 0.0
2016-Jun-27 23:33N 29°47' W 092°11'0 0.0
2016-Jun-27 22:33N 29°47' W 092°11'0 0.1
2016-Jun-27 21:33N 29°47' W 092°11'0 0.0
2016-Jun-27 20:33N 29°47' W 092°11'0 0.0
2016-Jun-27 19:33N 29°47' W 092°11'0 0.0
2016-Jun-27 18:33N 29°47' W 092°11'0 0.0
2016-Jun-27 17:33N 29°47' W 092°11'0 0.0
2016-Jun-27 16:33N 29°47' W 092°11'0 0.0
2016-Jun-27 15:33N 29°47' W 092°11'0 0.1
2016-Jun-27 14:33N 29°47' W 092°11'0 0.0
2016-Jun-27 13:33N 29°47' W 092°11'0 0.0
2016-Jun-27 12:33N 29°47' W 092°11'0 0.0
2016-Jun-27 11:33N 29°47' W 092°11'0 0.0
2016-Jun-27 10:33N 29°47' W 092°11'0 0.0
2016-Jun-27 09:33N 29°47' W 092°11'0 0.0
2016-Jun-27 08:33N 29°47' W 092°11'0 0.0
2016-Jun-27 07:33N 29°47' W 092°11'0 0.0
2016-Jun-26 18:08N 29°47' W 092°11'0 0.0
2016-Jun-26 17:33N 29°47' W 092°11'1 0.8
2016-Jun-26 16:33N 29°47' W 092°10'  
2016-Jun-19 13:14N 29°46' W 091°43'9 8.2
2016-Jun-19 12:11N 29°51' W 091°51'813.2
2016-Jun-19 11:33N 29°50' W 092°01'10 9.6
2016-Jun-19 10:33N 29°47' W 092°11'1 0.2
2016-Jun-19 04:33N 29°46' W 092°11'  
Track history (hours):
 
Tides and Currents Weather Stations Pressure Air Temp Water Temp Dewpoint Dewpoint Depression Visibility Wind Speed Wind Dir Waves Ship Positions

Mr. Mag

Owner: Tandi Marine, Inc., Larose, LA. More information available from US FCC via Universal Licensing System and Coast Guard Vessel Documentation Center.

Last reported at 2016-Jun-28 07:04 UTC. Time now 2016-Jun-28 09:51 UTC.
Position N 29°31' W 092°19'.

Length 46 m; draft 2.5 m.

Type: Passenger vessel. MMSI: 367397990.

Date/timePositionNaut miles runAvg speedWind from/ knotsBaromVisibWave heightAir tempDewpointWater temp
2016-Jun-28 07:04N 29°31' W 092°19'4 7.9
2016-Jun-28 06:33N 29°35' W 092°18'14 6.8
2016-Jun-28 04:33N 29°47' W 092°11'0 0.0
2016-Jun-28 03:33N 29°47' W 092°11'0 0.0
2016-Jun-28 02:33N 29°47' W 092°11'0 0.0
2016-Jun-28 01:33N 29°47' W 092°11'0 0.0
2016-Jun-28 00:33N 29°47' W 092°11'0 0.0
2016-Jun-27 23:33N 29°47' W 092°11'0 0.0
2016-Jun-27 22:33N 29°47' W 092°11'0 0.1
2016-Jun-27 21:33N 29°47' W 092°11'0 0.0
2016-Jun-27 20:33N 29°47' W 092°11'0 0.0
2016-Jun-27 19:33N 29°47' W 092°11'0 0.0
2016-Jun-27 18:33N 29°47' W 092°11'0 0.0
2016-Jun-27 17:33N 29°47' W 092°11'0 0.0
2016-Jun-27 16:33N 29°47' W 092°11'0 0.0
2016-Jun-27 15:33N 29°47' W 092°11'0 0.1
2016-Jun-27 14:33N 29°47' W 092°11'0 0.0
2016-Jun-27 13:33N 29°47' W 092°11'0 0.0
2016-Jun-27 12:33N 29°47' W 092°11'0 0.0
2016-Jun-27 11:33N 29°47' W 092°11'0 0.0
2016-Jun-27 10:33N 29°47' W 092°11'0 0.0
2016-Jun-27 09:33N 29°47' W 092°11'0 0.0
2016-Jun-27 08:33N 29°47' W 092°11'0 0.0
2016-Jun-27 07:33N 29°47' W 092°11'0 0.0
2016-Jun-26 18:08N 29°47' W 092°11'0 0.0
2016-Jun-26 17:33N 29°47' W 092°11'1 0.8
2016-Jun-26 16:33N 29°47' W 092°10'  
2016-Jun-19 13:14N 29°46' W 091°43'9 8.2
2016-Jun-19 12:11N 29°51' W 091°51'813.2
2016-Jun-19 11:33N 29°50' W 092°01'10 9.6
2016-Jun-19 10:33N 29°47' W 092°11'1 0.2
2016-Jun-19 04:33N 29°46' W 092°11'  

Dump ship's entire track history